Time;durP1;ratioP1;P1;durP2;ratioP2;P2;SDS_P1;SDS_P2;PMS_P1;PMS_P2;Temp;Humidity;BMP_temperature;BMP_pressure;BME280_temperature;BME280_humidity;BME280_pressure;Samples;Min_cycle;Max_cycle;Signal;HPM_P1;HPM_P2
2023/06/21 00:00:41;;;;;;;6.72;4.60;;;;;;;27.09;46.42;101274.94;5043635;28;20144;-31
2023/06/21 00:03:07;;;;;;;6.30;4.53;;;;;;;27.11;46.40;101285.66;5042229;28;20072;-31
2023/06/21 00:05:34;;;;;;;6.07;3.58;;;;;;;27.08;46.09;101276.81;5040694;28;20103;-31
2023/06/21 00:08:01;;;;;;;6.90;4.43;;;;;;;27.07;46.43;101267.00;5036065;28;20080;-32
2023/06/21 00:10:29;;;;;;;5.32;3.58;;;;;;;27.07;46.04;101258.81;5041653;28;20124;-31
2023/06/21 00:12:57;;;;;;;5.13;3.55;;;;;;;27.07;46.57;101272.44;5042806;28;20159;-32
2023/06/21 00:15:24;;;;;;;5.35;4.00;;;;;;;27.06;46.54;101262.59;5042111;28;20048;-31
2023/06/21 00:17:51;;;;;;;4.75;3.88;;;;;;;27.06;46.28;101262.59;5042368;28;20065;-31
2023/06/21 00:20:18;;;;;;;4.35;3.90;;;;;;;27.05;46.11;101254.63;5043967;28;20515;-32
2023/06/21 00:22:47;;;;;;;7.50;4.25;;;;;;;27.05;46.15;101260.91;5046039;28;20603;-32
2023/06/21 00:25:17;;;;;;;5.72;4.28;;;;;;;27.04;46.20;101261.94;5046381;28;20074;-31
2023/06/21 00:27:44;;;;;;;5.35;4.20;;;;;;;27.03;46.31;101263.00;5039418;28;20041;-32
2023/06/21 00:30:10;;;;;;;6.90;4.63;;;;;;;27.02;46.42;101260.50;5042497;28;20108;-31
2023/06/21 00:32:38;;;;;;;5.47;4.32;;;;;;;27.01;46.05;101264.22;5042604;28;20049;-31
2023/06/21 00:35:06;;;;;;;4.70;3.90;;;;;;;27.01;46.42;101275.13;5041436;28;20353;-32
2023/06/21 00:37:32;;;;;;;5.55;4.00;;;;;;;27.00;46.49;101282.44;5040640;28;20429;-32
2023/06/21 00:39:59;;;;;;;4.55;3.95;;;;;;;27.00;46.47;101287.88;5031956;28;20057;-31
2023/06/21 00:42:26;;;;;;;6.55;4.80;;;;;;;27.00;46.35;101281.59;5041324;28;20087;-31
2023/06/21 00:44:53;;;;;;;5.03;3.70;;;;;;;26.99;46.59;101288.09;5039963;28;20053;-31
2023/06/21 00:47:19;;;;;;;6.43;4.40;;;;;;;26.98;46.56;101289.97;5039822;28;20053;-31
2023/06/21 00:49:46;;;;;;;6.22;4.75;;;;;;;26.96;46.29;101294.78;5040563;28;20429;-31
2023/06/21 00:52:13;;;;;;;4.82;3.97;;;;;;;26.96;46.24;101293.94;5039784;28;20084;-32
2023/06/21 00:54:41;;;;;;;6.00;4.53;;;;;;;26.96;46.52;101296.66;5039679;28;20057;-31
2023/06/21 00:57:08;;;;;;;4.57;4.05;;;;;;;26.95;46.37;101303.16;5037282;28;20448;-31
2023/06/21 00:59:35;;;;;;;5.97;4.05;;;;;;;26.94;46.50;101310.47;5036763;28;20314;-31
2023/06/21 01:02:02;;;;;;;4.18;3.75;;;;;;;26.93;46.54;101314.22;5040575;28;20049;-31
2023/06/21 01:04:31;;;;;;;8.20;4.55;;;;;;;26.92;46.54;101315.25;5034898;28;20050;-31
2023/06/21 01:07:20;;;;;;;5.53;4.00;;;;;;;26.91;46.72;101321.75;5036223;28;20341;-31
2023/06/21 01:09:50;;;;;;;4.32;3.65;;;;;;;26.91;46.61;101319.03;5034426;28;20563;-31
2023/06/21 01:12:44;;;;;;;5.38;3.90;;;;;;;26.89;46.31;101321.09;5032398;28;20064;-31
2023/06/21 01:15:17;;;;;;;5.55;3.75;;;;;;;26.91;46.24;101329.06;5031952;28;20056;-31
2023/06/21 01:17:51;;;;;;;4.88;3.90;;;;;;;26.91;46.86;101329.06;5041569;28;20132;-32
2023/06/21 01:20:24;;;;;;;6.15;4.97;;;;;;;26.89;46.22;101323.81;5035422;28;20089;-31
2023/06/21 01:22:51;;;;;;;5.63;4.35;;;;;;;26.89;46.58;101334.69;5043549;28;20072;-31
2023/06/21 01:25:36;;;;;;;5.65;4.72;;;;;;;26.86;46.50;101332.41;5041497;28;20106;-31
2023/06/21 01:28:23;;;;;;;5.60;3.85;;;;;;;26.87;46.52;101334.06;5037469;28;20136;-31
2023/06/21 01:30:51;;;;;;;5.00;4.07;;;;;;;26.88;46.41;101334.91;5041404;28;20084;-31
2023/06/21 01:33:19;;;;;;;5.82;4.38;;;;;;;26.86;46.79;101340.56;5036727;28;20140;-32
2023/06/21 01:35:45;;;;;;;6.03;3.97;;;;;;;26.85;46.47;101330.69;5036604;28;20057;-31
2023/06/21 01:38:12;;;;;;;5.15;4.20;;;;;;;26.85;46.38;101332.59;5030842;28;20081;-31
2023/06/21 01:40:39;;;;;;;6.38;4.43;;;;;;;26.85;46.58;101338.84;5038682;28;20102;-31
2023/06/21 01:43:06;;;;;;;4.68;3.85;;;;;;;26.85;46.61;101332.59;5045296;28;20087;-31
2023/06/21 01:45:32;;;;;;;6.32;4.60;;;;;;;26.85;46.61;101332.59;5037146;28;20164;-31
2023/06/21 01:48:02;;;;;;;5.90;4.20;;;;;;;26.83;46.26;101339.06;5038189;28;20050;-31
2023/06/21 01:50:30;;;;;;;6.35;4.72;;;;;;;26.84;46.63;101331.75;5037050;28;20517;-31
2023/06/21 01:52:58;;;;;;;6.50;3.97;;;;;;;26.83;46.46;101327.34;5041119;28;20127;-31
2023/06/21 01:55:25;;;;;;;4.97;3.75;;;;;;;26.83;46.55;101332.78;5039627;28;20140;-31
2023/06/21 01:57:52;;;;;;;5.20;4.40;;;;;;;26.83;46.57;101335.50;5040026;28;20077;-31
2023/06/21 02:00:21;;;;;;;5.50;4.20;;;;;;;26.82;46.35;101342.00;5039668;28;20061;-31
2023/06/21 02:03:03;;;;;;;7.82;5.28;;;;;;;26.81;46.48;101345.75;5037263;28;20052;-31
2023/06/21 02:05:31;;;;;;;5.10;4.35;;;;;;;26.80;46.56;101339.47;5037867;28;20395;-31
2023/06/21 02:08:00;;;;;;;5.80;3.95;;;;;;;26.79;46.65;101324.19;5039918;28;20049;-31
2023/06/21 02:10:27;;;;;;;6.05;4.93;;;;;;;26.79;46.20;101332.34;5037196;28;20045;-31
2023/06/21 02:12:54;;;;;;;4.90;3.90;;;;;;;26.79;46.78;101335.06;5037896;28;20119;-31
2023/06/21 02:15:21;;;;;;;5.68;3.78;;;;;;;26.79;46.32;101350.56;5036285;28;20133;-31
2023/06/21 02:17:49;;;;;;;5.10;4.15;;;;;;;26.77;46.27;101350.72;5036614;28;20058;-31
2023/06/21 02:20:21;;;;;;;4.53;3.90;;;;;;;26.77;46.61;101350.72;5030143;28;20046;-31
2023/06/21 02:22:48;;;;;;;6.30;5.07;;;;;;;26.76;46.62;101343.63;5036807;28;20349;-31
2023/06/21 02:25:17;;;;;;;5.63;4.20;;;;;;;26.76;46.44;101359.09;5038800;28;20048;-30
2023/06/21 02:27:44;;;;;;;8.40;4.85;;;;;;;26.76;46.36;101361.81;5038243;28;20049;-31
2023/06/21 02:30:11;;;;;;;5.68;4.93;;;;;;;26.74;46.41;101364.75;5033996;28;20578;-31
2023/06/21 02:32:37;;;;;;;6.43;5.60;;;;;;;26.74;46.74;101369.38;5036813;28;20180;-31
2023/06/21 02:35:05;;;;;;;5.07;4.55;;;;;;;26.73;46.60;101368.50;5033020;28;20060;-31
2023/06/21 02:37:32;;;;;;;5.32;4.43;;;;;;;26.72;46.35;101369.53;5040317;28;20187;-31
2023/06/21 02:39:58;;;;;;;6.50;4.95;;;;;;;26.72;46.60;101371.44;5037516;28;20081;-31
2023/06/21 02:42:29;;;;;;;5.32;4.43;;;;;;;26.71;46.40;101373.31;5037296;28;20380;-31
2023/06/21 02:44:55;;;;;;;4.93;4.40;;;;;;;26.72;46.60;101371.44;5030416;28;20144;-31
2023/06/21 02:47:22;;;;;;;6.30;5.25;;;;;;;26.71;46.31;101381.47;5044815;28;20056;-31
2023/06/21 02:49:48;;;;;;;6.03;4.22;;;;;;;26.70;46.54;101396.09;5044161;28;20429;-30
2023/06/21 02:52:15;;;;;;;8.15;5.43;;;;;;;26.70;46.33;101389.84;5038236;28;20134;-31
2023/06/21 02:58:28;;;;;;;6.15;4.72;;;;;;;26.69;46.39;101391.69;5042848;28;20048;-31
2023/06/21 03:00:58;;;;;;;7.00;5.70;;;;;;;26.68;46.56;101387.28;5038755;28;20405;-31
2023/06/21 03:03:25;;;;;;;5.60;4.65;;;;;;;26.68;46.55;101389.19;5043166;28;20103;-31
2023/06/21 03:05:52;;;;;;;5.45;4.43;;;;;;;26.67;46.58;101392.94;5033607;28;20342;-33
2023/06/21 03:08:19;;;;;;;5.82;4.43;;;;;;;26.66;46.47;101392.09;5041221;28;20106;-32
2023/06/21 03:10:45;;;;;;;5.43;4.72;;;;;;;26.66;46.43;101402.16;5036952;28;20049;-31
2023/06/21 03:13:12;;;;;;;5.30;4.18;;;;;;;26.66;46.44;101404.88;5040361;28;20041;-31
2023/06/21 03:15:39;;;;;;;6.60;4.57;;;;;;;26.65;46.55;101414.88;5034661;28;20375;-31
2023/06/21 03:18:05;;;;;;;5.55;4.88;;;;;;;26.65;46.23;101417.59;5040895;28;20133;-31
2023/06/21 03:20:32;;;;;;;5.70;4.53;;;;;;;26.65;46.54;101416.75;5038373;28;20068;-31
2023/06/21 03:22:59;;;;;;;5.15;4.32;;;;;;;26.65;46.52;101403.16;5041495;28;20053;-31
2023/06/21 03:25:27;;;;;;;5.78;4.97;;;;;;;26.64;46.34;101413.19;5045706;28;20056;-32
2023/06/21 03:27:53;;;;;;;5.90;4.93;;;;;;;26.64;46.44;101429.53;5038549;28;20049;-31
2023/06/21 03:30:21;;;;;;;7.65;4.50;;;;;;;26.64;46.31;101434.13;5037117;28;20365;-31
2023/06/21 03:32:48;;;;;;;5.68;4.20;;;;;;;26.64;46.45;101434.13;5037489;28;20132;-31
2023/06/21 03:35:18;;;;;;;6.65;4.38;;;;;;;26.63;46.28;101440.59;5031898;28;20049;-31
2023/06/21 03:37:46;;;;;;;5.18;4.47;;;;;;;26.62;46.41;101439.78;5041357;28;20057;-31
2023/06/21 03:40:14;;;;;;;7.50;4.78;;;;;;;26.63;46.47;101446.03;5038147;28;20129;-31
2023/06/21 03:42:44;;;;;;;6.28;4.57;;;;;;;26.61;46.36;101438.06;5038359;28;20437;-31
2023/06/21 03:45:11;;;;;;;7.57;4.72;;;;;;;26.62;46.42;101452.53;5038934;28;20061;-32
2023/06/21 03:47:39;;;;;;;16.50;4.43;;;;;;;26.62;46.36;101447.09;5040304;28;20065;-31
2023/06/21 03:50:07;;;;;;;6.00;4.90;;;;;;;26.61;46.22;101458.97;5037664;28;20608;-31
2023/06/21 03:52:34;;;;;;;5.95;4.40;;;;;;;26.62;46.09;101471.56;5039253;28;20041;-30
2023/06/21 03:55:02;;;;;;;7.95;4.28;;;;;;;26.61;46.29;101469.84;5037722;28;20502;-31
2023/06/21 03:57:29;;;;;;;5.93;4.55;;;;;;;26.59;46.45;101472.78;5036659;28;20404;-31
2023/06/21 03:59:55;;;;;;;6.60;4.97;;;;;;;26.60;46.45;101473.63;5036659;28;20092;-31
2023/06/21 04:02:23;;;;;;;5.65;4.70;;;;;;;26.58;46.26;101477.38;5037784;28;20045;-31
2023/06/21 04:04:50;;;;;;;5.45;4.47;;;;;;;26.59;46.35;101478.22;5034720;28;20456;-31
2023/06/21 04:07:19;;;;;;;5.78;4.78;;;;;;;26.58;46.44;101469.22;5037778;28;20053;-32
2023/06/21 04:09:47;;;;;;;5.57;4.70;;;;;;;26.58;46.08;101477.38;5034795;28;20084;-31
2023/06/21 04:12:14;;;;;;;5.47;4.53;;;;;;;26.58;46.18;101471.94;5038434;28;20045;-31
2023/06/21 04:14:41;;;;;;;5.75;4.70;;;;;;;26.59;46.17;101475.50;5040066;28;20425;-31
2023/06/21 04:17:07;;;;;;;6.60;5.25;;;;;;;26.58;46.12;101481.97;5044468;28;20151;-31
2023/06/21 04:19:34;;;;;;;7.05;4.70;;;;;;;26.58;46.39;101482.81;5043736;28;20072;-31
2023/06/21 04:22:00;;;;;;;6.10;5.15;;;;;;;26.57;46.28;101481.16;5043825;28;20045;-31
2023/06/21 04:24:27;;;;;;;5.68;4.85;;;;;;;26.57;46.49;101486.59;5045997;28;20052;-31
2023/06/21 04:26:55;;;;;;;6.05;4.85;;;;;;;26.57;46.24;101481.16;5046203;28;20366;-32
2023/06/21 04:29:22;;;;;;;5.70;4.35;;;;;;;26.58;46.49;101488.25;5044496;28;20360;-31
2023/06/21 04:31:51;;;;;;;6.47;5.15;;;;;;;26.58;46.19;101487.41;5046504;28;20067;-31
2023/06/21 04:34:21;;;;;;;5.82;5.20;;;;;;;26.57;46.35;101494.75;5040282;28;20533;-31
2023/06/21 04:36:48;;;;;;;5.50;4.30;;;;;;;26.59;46.23;101494.53;5044014;28;20355;-31
2023/06/21 04:39:17;;;;;;;5.22;4.57;;;;;;;26.59;46.28;101494.53;5042944;28;20049;-31
2023/06/21 04:41:47;;;;;;;5.32;4.47;;;;;;;26.60;46.05;101489.94;5044119;28;20048;-32
2023/06/21 04:44:16;;;;;;;4.90;4.30;;;;;;;26.60;46.45;101489.94;5040785;28;20053;-31
2023/06/21 04:46:46;;;;;;;6.57;4.35;;;;;;;26.58;45.99;101490.97;5041991;28;20053;-31
2023/06/21 04:49:15;;;;;;;5.10;4.55;;;;;;;26.60;45.94;101484.50;5042996;28;20059;-31
2023/06/21 04:51:43;;;;;;;5.53;4.65;;;;;;;26.60;46.02;101498.94;5042430;28;20336;-31
2023/06/21 04:54:10;;;;;;;5.22;4.38;;;;;;;26.61;45.97;101502.47;5044561;28;20368;-31
2023/06/21 04:56:36;;;;;;;7.88;4.38;;;;;;;26.61;46.04;101506.03;5072816;28;20128;-31
2023/06/21 04:59:03;;;;;;;7.53;4.30;;;;;;;26.61;46.30;101505.19;5040443;28;20085;-31
2023/06/21 05:01:31;;;;;;;5.10;4.30;;;;;;;26.63;46.14;101508.59;5043597;28;20127;-31
2023/06/21 05:03:57;;;;;;;5.28;4.60;;;;;;;26.64;46.00;101518.41;5034900;28;20088;-31
2023/06/21 05:06:25;;;;;;;6.22;4.18;;;;;;;26.64;46.05;101512.97;5031704;28;20053;-32
2023/06/21 05:08:53;;;;;;;5.63;3.95;;;;;;;26.66;46.30;101502.75;5040413;28;20065;-31
2023/06/21 05:11:20;;;;;;;5.03;3.67;;;;;;;26.66;46.21;101510.91;5033611;28;20085;-30
2023/06/21 05:13:47;;;;;;;4.53;4.13;;;;;;;26.68;46.37;101511.56;5036462;28;20099;-31
2023/06/21 05:16:13;;;;;;;4.55;3.63;;;;;;;26.69;45.98;101511.34;5033484;28;20084;-31
2023/06/21 05:18:40;;;;;;;4.65;3.90;;;;;;;26.72;45.91;101507.41;5038318;28;20419;-31
2023/06/21 05:21:06;;;;;;;5.85;4.00;;;;;;;26.72;45.83;101510.13;5034423;28;20136;-31
2023/06/21 05:23:33;;;;;;;4.53;3.90;;;;;;;26.74;46.17;101513.50;5039293;28;20310;-31
2023/06/21 05:26:00;;;;;;;6.78;4.00;;;;;;;26.75;45.97;101521.47;5039509;28;20480;-31
2023/06/21 05:28:30;;;;;;;3.80;3.40;;;;;;;26.76;46.13;101516.84;5035342;28;20497;-32
2023/06/21 05:30:57;;;;;;;4.63;3.60;;;;;;;26.80;45.59;101529.03;5034974;28;20061;-31
2023/06/21 05:33:23;;;;;;;4.75;3.65;;;;;;;26.79;45.99;101525.47;5036873;28;20061;-32
2023/06/21 05:35:50;;;;;;;4.30;3.70;;;;;;;26.80;45.98;101529.03;5035549;28;20081;-31
2023/06/21 05:38:17;;;;;;;4.00;3.60;;;;;;;26.82;45.83;101535.97;5040165;28;20049;-31
2023/06/21 05:40:43;;;;;;;4.47;4.07;;;;;;;26.83;45.83;101534.09;5037079;28;20049;-31
2023/06/21 05:43:10;;;;;;;4.35;3.47;;;;;;;26.85;45.75;101542.03;5037676;28;20609;-31
2023/06/21 05:45:37;;;;;;;5.38;3.80;;;;;;;26.86;45.84;101535.59;5037104;28;20091;-31
2023/06/21 05:48:04;;;;;;;4.57;3.67;;;;;;;26.88;45.39;101542.50;5040113;28;20045;-31
2023/06/21 05:50:31;;;;;;;3.78;3.05;;;;;;;26.88;45.21;101547.94;5038794;28;20049;-31
2023/06/21 05:52:58;;;;;;;3.90;3.13;;;;;;;26.89;45.44;101552.31;5040930;28;20508;-32
2023/06/21 05:55:25;;;;;;;3.97;3.45;;;;;;;26.89;45.30;101546.88;5037660;28;20132;-33
2023/06/21 05:58:01;;;;;;;5.03;3.60;;;;;;;26.89;45.36;101552.31;5038063;28;20049;-33
2023/06/21 06:00:30;;;;;;;4.07;3.00;;;;;;;26.90;45.31;101554.03;5041472;28;20665;-31
2023/06/21 06:02:57;;;;;;;4.22;2.92;;;;;;;26.90;45.61;101556.75;5041129;28;20056;-31
2023/06/21 06:05:23;;;;;;;3.63;3.13;;;;;;;26.89;45.14;101563.22;5040952;28;20151;-31
2023/06/21 06:07:50;;;;;;;3.30;3.00;;;;;;;26.89;45.25;101571.38;5038334;28;20041;-33
2023/06/21 06:10:17;;;;;;;3.55;3.22;;;;;;;26.89;45.14;101573.25;5041243;28;20051;-31
2023/06/21 06:12:44;;;;;;;3.83;3.38;;;;;;;26.88;44.99;101577.84;5024468;28;20053;-30
2023/06/21 06:15:10;;;;;;;3.20;2.85;;;;;;;26.89;45.20;101586.84;5030178;28;20046;-32
2023/06/21 06:17:37;;;;;;;3.58;2.65;;;;;;;26.87;45.27;101581.63;5036128;28;20119;-30
2023/06/21 06:20:06;;;;;;;3.63;3.13;;;;;;;26.87;45.40;101584.34;5039884;28;20136;-31
2023/06/21 06:22:35;;;;;;;4.18;3.35;;;;;;;26.87;45.07;101587.06;5039977;28;20119;-30
2023/06/21 06:25:03;;;;;;;4.50;2.97;;;;;;;26.87;45.21;101589.78;5041705;28;20049;-30
2023/06/21 06:27:29;;;;;;;3.78;3.10;;;;;;;26.87;45.16;101592.50;5038791;28;20103;-31
2023/06/21 06:29:56;;;;;;;3.67;3.20;;;;;;;26.88;45.40;101599.63;5036939;28;20052;-30
2023/06/21 06:32:23;;;;;;;3.53;3.22;;;;;;;26.88;45.11;101599.63;5039169;28;20127;-31
2023/06/21 06:34:50;;;;;;;3.75;3.20;;;;;;;26.89;45.14;101604.00;5036240;28;20089;-31
2023/06/21 06:37:17;;;;;;;3.58;3.10;;;;;;;26.89;45.16;101605.91;5039004;28;20128;-31
2023/06/21 06:39:48;;;;;;;3.15;2.85;;;;;;;26.90;45.50;101611.16;5040455;28;20433;-31
2023/06/21 06:42:14;;;;;;;3.20;2.83;;;;;;;26.92;45.08;101613.69;5042723;28;20165;-31
2023/06/21 06:44:41;;;;;;;3.25;2.60;;;;;;;26.92;45.34;101614.50;5037886;28;20139;-31
2023/06/21 06:47:07;;;;;;;3.78;3.25;;;;;;;26.93;45.50;101620.78;5037447;28;20049;-30
2023/06/21 06:49:34;;;;;;;4.55;3.20;;;;;;;26.94;45.04;101623.34;5045011;28;20057;-31
2023/06/21 06:52:01;;;;;;;3.05;2.75;;;;;;;26.93;44.80;101620.78;5038546;28;20052;-31
2023/06/21 06:54:27;;;;;;;3.65;3.25;;;;;;;26.93;45.27;101618.06;5039949;28;20192;-31
2023/06/21 06:56:54;;;;;;;3.78;2.90;;;;;;;26.94;45.07;101633.38;5035368;28;20418;-31
2023/06/21 06:59:22;;;;;;;4.03;2.90;;;;;;;26.93;45.23;101634.41;5037728;28;20054;-31
2023/06/21 07:01:49;;;;;;;3.10;2.40;;;;;;;26.92;45.10;101636.28;5048670;28;20253;-30
2023/06/21 07:04:16;;;;;;;3.97;2.97;;;;;;;26.93;45.54;101634.41;5044716;28;20088;-30
2023/06/21 07:06:43;;;;;;;4.60;2.88;;;;;;;26.93;45.72;101634.41;5038160;28;20132;-31
2023/06/21 07:09:09;;;;;;;2.85;2.55;;;;;;;26.92;45.25;101638.16;5042867;28;20061;-30
2023/06/21 07:11:36;;;;;;;3.15;2.53;;;;;;;26.92;45.62;101638.16;5036906;28;20053;-31
2023/06/21 07:14:02;;;;;;;5.63;3.03;;;;;;;26.92;45.63;101649.03;5037699;28;20440;-32
2023/06/21 07:16:39;;;;;;;4.85;2.65;;;;;;;26.91;45.30;101661.81;5036835;28;20496;-30
2023/06/21 07:19:06;;;;;;;3.67;2.30;;;;;;;26.92;45.43;101660.78;5042399;28;20076;-31
2023/06/21 07:21:33;;;;;;;3.17;2.75;;;;;;;26.92;45.33;101660.78;5032966;28;20057;-31
2023/06/21 07:24:00;;;;;;;3.70;2.60;;;;;;;26.92;45.07;101658.06;5035816;28;20045;-31
2023/06/21 07:26:26;;;;;;;2.50;2.20;;;;;;;26.93;45.46;101669.78;5040353;28;20154;-32
2023/06/21 07:28:53;;;;;;;2.63;2.42;;;;;;;26.94;45.61;101663.31;5038122;28;20045;-31
2023/06/21 07:31:20;;;;;;;2.72;2.17;;;;;;;26.93;45.40;101659.72;5037830;28;20127;-32
2023/06/21 07:33:48;;;;;;;3.80;2.90;;;;;;;26.93;45.47;101673.31;5041212;28;20473;-31
2023/06/21 07:36:15;;;;;;;4.32;2.53;;;;;;;26.94;45.19;101668.75;5039302;28;20122;-32
2023/06/21 07:38:46;;;;;;;3.03;2.45;;;;;;;26.96;45.31;101672.13;5038336;28;20077;-30
2023/06/21 07:41:13;;;;;;;2.63;2.33;;;;;;;26.96;45.41;101661.22;5040376;28;20103;-31
2023/06/21 07:43:40;;;;;;;2.85;2.33;;;;;;;26.98;45.07;101664.63;5040093;28;20070;-31
2023/06/21 07:46:07;;;;;;;2.50;2.22;;;;;;;26.98;45.37;101662.72;5040525;28;20049;-31
2023/06/21 07:48:41;;;;;;;4.18;2.60;;;;;;;26.99;45.24;101664.41;5041053;28;20052;-32
2023/06/21 07:51:08;;;;;;;2.95;2.53;;;;;;;27.02;45.25;101671.34;5041020;28;20072;-31
2023/06/21 07:53:35;;;;;;;2.78;2.03;;;;;;;27.02;45.07;101664.03;5041954;28;20072;-31
2023/06/21 07:56:01;;;;;;;2.55;1.90;;;;;;;27.02;44.74;101668.63;5040282;28;20092;-32
2023/06/21 07:58:28;;;;;;;4.00;2.38;;;;;;;27.03;44.95;101665.72;5039220;28;20080;-31
2023/06/21 08:00:55;;;;;;;3.17;1.65;;;;;;;27.04;44.89;101672.00;5041716;28;20041;-32
2023/06/21 08:03:22;;;;;;;3.47;2.28;;;;;;;27.04;44.68;101672.81;5040061;28;20055;-31
2023/06/21 08:05:48;;;;;;;2.83;2.50;;;;;;;27.06;44.93;101687.09;5037421;28;20100;-31
2023/06/21 08:08:17;;;;;;;2.90;2.00;;;;;;;27.06;44.80;101678.94;5039333;28;20056;-31
2023/06/21 08:10:44;;;;;;;2.30;1.85;;;;;;;27.07;44.53;101675.16;5039131;28;20045;-31
2023/06/21 08:13:10;;;;;;;2.53;2.10;;;;;;;27.07;44.46;101683.34;5036105;28;20106;-31
2023/06/21 08:15:37;;;;;;;2.53;1.98;;;;;;;27.08;44.67;101685.00;5037516;28;20436;-31
2023/06/21 08:18:03;;;;;;;3.33;1.75;;;;;;;27.10;45.12;101687.59;5033655;28;20386;-31
2023/06/21 08:20:32;;;;;;;2.63;2.10;;;;;;;27.10;44.46;101684.88;5040379;28;20444;-32
2023/06/21 08:22:58;;;;;;;3.05;1.92;;;;;;;27.13;44.48;101697.22;5033556;28;20445;-31
2023/06/21 08:25:25;;;;;;;2.95;1.77;;;;;;;27.13;44.67;101697.22;5042972;28;20075;-31
2023/06/21 08:27:52;;;;;;;1.88;1.70;;;;;;;27.13;45.01;101698.06;5032564;28;20510;-31
2023/06/21 08:30:19;;;;;;;3.33;1.90;;;;;;;27.12;44.31;101696.38;5043176;28;20527;-31
2023/06/21 08:32:45;;;;;;;2.58;1.52;;;;;;;27.13;44.89;101702.66;5045396;28;20053;-31
2023/06/21 08:35:12;;;;;;;2.83;1.85;;;;;;;27.12;44.61;101701.81;5039006;28;20049;-31
2023/06/21 08:37:39;;;;;;;2.65;1.75;;;;;;;27.13;44.23;101700.78;5042998;28;20056;-31
2023/06/21 08:40:07;;;;;;;2.17;1.60;;;;;;;27.13;44.90;101708.94;5048161;28;20053;-31
2023/06/21 08:42:34;;;;;;;2.60;1.92;;;;;;;27.13;44.49;101706.22;5048619;28;20121;-32
2023/06/21 08:45:01;;;;;;;3.33;2.05;;;;;;;27.13;44.57;101703.50;5042249;28;20107;-31
2023/06/21 08:47:28;;;;;;;3.55;1.85;;;;;;;27.14;44.74;101705.22;5047485;28;20053;-31
2023/06/21 08:49:58;;;;;;;2.70;2.00;;;;;;;27.15;44.46;101706.06;5044471;28;20041;-31
2023/06/21 08:52:28;;;;;;;2.50;1.70;;;;;;;27.16;44.66;101715.91;5040691;28;20053;-32
2023/06/21 08:55:00;;;;;;;3.20;1.83;;;;;;;27.17;44.76;101714.84;5046250;28;20049;-31
2023/06/21 08:57:32;;;;;;;2.78;1.75;;;;;;;27.17;44.50;101710.25;5032107;28;20111;-31
2023/06/21 09:00:04;;;;;;;1.83;1.58;;;;;;;27.19;44.46;101715.50;5038187;28;20096;-32
2023/06/21 09:02:59;;;;;;;2.55;1.45;;;;;;;27.18;45.14;101709.22;5039254;28;20042;-31
2023/06/21 09:05:33;;;;;;;1.85;1.55;;;;;;;27.22;44.73;101717.84;5033485;28;20115;-31
2023/06/21 09:08:02;;;;;;;2.45;1.50;;;;;;;27.22;44.28;101723.31;5035313;28;20056;-31
2023/06/21 09:10:34;;;;;;;2.15;1.40;;;;;;;27.24;44.64;101721.22;5037581;28;20045;-31
2023/06/21 09:13:03;;;;;;;2.00;1.50;;;;;;;27.25;45.01;101717.44;5033234;28;20103;-31
2023/06/21 09:15:30;;;;;;;4.63;1.70;;;;;;;27.27;44.59;101720.84;5035860;28;20126;-31
2023/06/21 09:17:56;;;;;;;2.03;1.55;;;;;;;27.29;45.01;101718.75;5034238;28;20065;-31
2023/06/21 09:20:28;;;;;;;2.38;1.65;;;;;;;27.31;44.54;101716.69;5034505;28;20060;-31
2023/06/21 09:22:59;;;;;;;1.60;1.30;;;;;;;27.32;44.88;101723.81;5035026;28;20049;-32
2023/06/21 09:25:27;;;;;;;2.15;1.60;;;;;;;27.35;44.46;101726.16;5045929;28;20480;-31
2023/06/21 09:27:54;;;;;;;1.52;1.33;;;;;;;27.37;45.21;101723.22;5035243;28;20053;-31
2023/06/21 09:30:22;;;;;;;1.40;1.25;;;;;;;27.39;44.96;101727.44;5034805;28;20057;-31
2023/06/21 09:33:04;;;;;;;3.28;1.50;;;;;;;27.43;44.60;101717.84;5031273;28;20053;-31
2023/06/21 09:35:32;;;;;;;2.10;1.48;;;;;;;27.46;44.73;101732.97;5032994;28;20508;-31
2023/06/21 09:37:58;;;;;;;1.80;1.40;;;;;;;27.50;44.81;101728.81;5034509;28;20536;-31
2023/06/21 09:40:25;;;;;;;1.73;1.35;;;;;;;27.52;44.40;101718.56;5037734;28;20099;-31
2023/06/21 09:42:53;;;;;;;2.22;1.20;;;;;;;27.55;44.60;101729.91;5036786;28;20337;-31
2023/06/21 09:45:20;;;;;;;1.50;1.40;;;;;;;27.58;44.25;101725.94;5037580;28;20092;-31
2023/06/21 09:47:47;;;;;;;1.73;1.20;;;;;;;27.62;45.01;101729.09;5033141;28;20068;-32
2023/06/21 09:50:14;;;;;;;1.65;1.30;;;;;;;27.64;44.59;101724.31;5037001;28;20060;-31
2023/06/21 09:52:45;;;;;;;1.63;1.20;;;;;;;27.66;44.47;101720.38;5034461;28;20053;-32
2023/06/21 09:55:15;;;;;;;3.67;1.30;;;;;;;27.71;44.68;101727.94;5042563;28;20495;-31
2023/06/21 09:57:43;;;;;;;1.73;1.10;;;;;;;27.72;44.24;101729.63;5040937;28;20050;-31
2023/06/21 10:00:12;;;;;;;1.73;1.02;;;;;;;27.76;44.02;101734.50;5042853;28;20061;-31
2023/06/21 10:02:42;;;;;;;2.08;1.27;;;;;;;27.79;44.39;101738.72;5037799;28;20100;-31
2023/06/21 10:05:19;;;;;;;2.35;1.40;;;;;;;27.82;44.80;101746.50;5041330;28;20053;-32
2023/06/21 10:07:47;;;;;;;1.40;1.20;;;;;;;27.85;44.25;101751.53;5041094;28;20056;-31
2023/06/21 10:10:14;;;;;;;1.35;1.17;;;;;;;27.87;44.64;101754.94;5041648;28;20049;-31
2023/06/21 10:12:53;;;;;;;1.50;1.17;;;;;;;27.89;44.43;101750.13;5042924;28;20049;-31
2023/06/21 10:15:22;;;;;;;2.42;1.45;;;;;;;27.92;44.55;101754.34;5042400;28;20589;-31
2023/06/21 10:17:49;;;;;;;2.53;1.25;;;;;;;27.94;43.58;101755.84;5039940;28;20115;-31
2023/06/21 10:20:31;;;;;;;1.88;1.10;;;;;;;27.97;44.60;101760.88;5043499;28;20328;-31
2023/06/21 10:23:01;;;;;;;2.22;0.90;;;;;;;27.99;43.57;101763.41;5047780;28;20056;-32
2023/06/21 10:25:29;;;;;;;1.52;1.10;;;;;;;28.01;44.08;101761.31;5047396;28;20069;-31
2023/06/21 10:28:00;;;;;;;1.13;1.02;;;;;;;28.03;43.83;101761.97;5045086;28;20057;-32
2023/06/21 10:30:28;;;;;;;1.70;0.93;;;;;;;28.05;43.98;101768.06;5038097;28;20080;-31
2023/06/21 10:33:00;;;;;;;1.63;1.30;;;;;;;28.07;44.21;101757.81;5044857;28;20377;-31
2023/06/21 10:35:30;;;;;;;0.80;0.80;;;;;;;28.08;43.69;101759.50;5043864;28;20053;-31
2023/06/21 10:38:14;;;;;;;1.83;0.90;;;;;;;28.10;44.02;101762.88;5043583;28;20110;-32
2023/06/21 10:40:41;;;;;;;1.40;1.02;;;;;;;28.13;43.40;101769.78;5043600;28;20171;-31
2023/06/21 10:43:10;;;;;;;1.98;1.55;;;;;;;28.16;44.11;101763.94;5044214;28;20088;-31
2023/06/21 10:45:38;;;;;;;1.35;1.17;;;;;;;28.16;43.97;101767.50;5041435;28;20111;-32
2023/06/21 10:48:06;;;;;;;1.55;1.05;;;;;;;28.18;44.13;101764.56;5042322;28;20080;-31
2023/06/21 10:50:32;;;;;;;1.10;0.90;;;;;;;28.21;43.30;101777.81;5040162;28;20071;-31
2023/06/21 10:53:01;;;;;;;1.65;0.95;;;;;;;28.22;43.09;101774.03;5041072;28;20114;-31
2023/06/21 10:55:28;;;;;;;1.83;1.20;;;;;;;28.24;43.87;101771.97;5041078;28;20090;-31
2023/06/21 10:57:55;;;;;;;1.42;1.00;;;;;;;28.26;44.02;101778.06;5038732;28;20088;-31
2023/06/21 11:00:24;;;;;;;2.15;1.40;;;;;;;28.27;43.02;101782.50;5038161;28;20057;-31
2023/06/21 11:02:53;;;;;;;1.85;0.98;;;;;;;28.27;43.42;101780.59;5043328;28;20056;-31
2023/06/21 11:05:21;;;;;;;1.80;1.27;;;;;;;28.28;43.32;101779.56;5043123;28;20346;-32
2023/06/21 11:08:00;;;;;;;1.88;1.10;;;;;;;28.30;43.54;101790.25;5035458;28;20042;-32
2023/06/21 11:10:49;;;;;;;1.83;1.00;;;;;;;28.32;43.38;101784.63;5044078;28;20081;-31
2023/06/21 11:13:34;;;;;;;1.38;1.10;;;;;;;28.33;43.74;101789.00;5035485;28;20058;-33
2023/06/21 11:16:16;;;;;;;1.33;0.75;;;;;;;28.35;42.90;101795.97;5038145;28;20046;-31
2023/06/21 11:19:05;;;;;;;1.38;0.85;;;;;;;28.35;42.98;101793.25;5033238;28;20061;-32
2023/06/21 11:21:46;;;;;;;1.23;0.90;;;;;;;28.37;42.71;101799.34;5041999;28;20084;-31
2023/06/21 11:24:18;;;;;;;0.85;0.75;;;;;;;28.39;42.71;101791.84;5043306;28;20135;-32
2023/06/21 11:27:04;;;;;;;1.45;0.95;;;;;;;28.39;43.46;101791.84;5041326;28;20326;-32
2023/06/21 11:29:37;;;;;;;1.83;1.25;;;;;;;28.42;42.98;101791.44;5037850;28;20151;-32
2023/06/21 11:32:06;;;;;;;1.08;0.98;;;;;;;28.42;43.06;101799.63;5040297;28;20045;-32
2023/06/21 11:34:33;;;;;;;1.58;1.02;;;;;;;28.43;43.05;101803.19;5038134;28;20491;-31